sensor_id;sensor_type;location;lat;lon;timestamp;P1;durP1;ratioP1;P2;durP2;ratioP2
49980;SDS011;35871;51.594;7.138;2022-09-09T07:08:03;2.72;;;1.20;;
49980;SDS011;35871;51.594;7.138;2022-09-09T07:13:05;3.53;;;1.30;;
49980;SDS011;35871;51.594;7.138;2022-09-09T07:18:07;3.38;;;1.23;;
49980;SDS011;35871;51.594;7.138;2022-09-09T07:23:10;3.67;;;1.30;;
49980;SDS011;35871;51.594;7.138;2022-09-09T07:28:11;4.60;;;1.40;;
49980;SDS011;35871;51.594;7.138;2022-09-09T07:33:12;3.35;;;1.20;;
49980;SDS011;35871;51.594;7.138;2022-09-09T07:38:13;3.35;;;1.65;;
49980;SDS011;35871;51.594;7.138;2022-09-09T07:43:15;4.40;;;1.38;;
49980;SDS011;35871;51.594;7.138;2022-09-09T07:48:18;4.70;;;1.60;;
49980;SDS011;35871;51.594;7.138;2022-09-09T07:53:19;3.65;;;1.42;;
49980;SDS011;35871;51.594;7.138;2022-09-09T07:58:21;6.03;;;1.95;;
49980;SDS011;35871;51.594;7.138;2022-09-09T08:03:22;4.32;;;1.38;;
49980;SDS011;35871;51.594;7.138;2022-09-09T08:08:23;6.13;;;1.48;;
49980;SDS011;35871;51.594;7.138;2022-09-09T08:13:24;5.57;;;1.60;;
49980;SDS011;35871;51.594;7.138;2022-09-09T08:18:27;5.07;;;1.48;;
49980;SDS011;35871;51.594;7.138;2022-09-09T08:23:28;4.00;;;1.60;;
49980;SDS011;35871;51.594;7.138;2022-09-09T08:28:29;5.28;;;1.40;;
49980;SDS011;35871;51.594;7.138;2022-09-09T08:33:31;4.75;;;1.67;;
49980;SDS011;35871;51.594;7.138;2022-09-09T08:38:33;4.68;;;1.50;;
49980;SDS011;35871;51.594;7.138;2022-09-09T08:43:34;4.63;;;1.40;;
49980;SDS011;35871;51.594;7.138;2022-09-09T08:53:56;5.47;;;1.58;;
49980;SDS011;35871;51.594;7.138;2022-09-09T08:59:00;4.85;;;1.50;;
49980;SDS011;35871;51.594;7.138;2022-09-09T09:14:24;4.50;;;1.77;;
49980;SDS011;35871;51.594;7.138;2022-09-09T09:19:25;5.53;;;1.42;;
49980;SDS011;35871;51.594;7.138;2022-09-09T09:24:29;5.20;;;1.30;;
49980;SDS011;35871;51.594;7.138;2022-09-09T09:29:32;4.32;;;1.35;;
49980;SDS011;35871;51.594;7.138;2022-09-09T09:34:35;3.33;;;1.48;;
49980;SDS011;35871;51.594;7.138;2022-09-09T09:39:36;4.45;;;1.63;;
49980;SDS011;35871;51.594;7.138;2022-09-09T09:44:39;3.78;;;1.38;;
49980;SDS011;35871;51.594;7.138;2022-09-09T09:49:56;4.45;;;1.45;;
49980;SDS011;35871;51.594;7.138;2022-09-09T09:54:59;3.75;;;1.30;;
49980;SDS011;35871;51.594;7.138;2022-09-09T10:00:19;2.90;;;1.45;;
49980;SDS011;35871;51.594;7.138;2022-09-09T10:05:22;3.65;;;1.73;;
49980;SDS011;35871;51.594;7.138;2022-09-09T10:10:26;4.53;;;1.70;;
49980;SDS011;35871;51.594;7.138;2022-09-09T10:21:03;5.72;;;2.05;;
49980;SDS011;35871;51.594;7.138;2022-09-09T10:36:20;4.47;;;1.77;;
49980;SDS011;35871;51.594;7.138;2022-09-09T10:46:55;4.65;;;1.67;;
49980;SDS011;35871;51.594;7.138;2022-09-09T10:52:01;3.35;;;1.42;;
49980;SDS011;35871;51.594;7.138;2022-09-09T10:58:12;3.20;;;1.60;;
49980;SDS011;35871;51.594;7.138;2022-09-09T11:14:19;4.40;;;1.60;;
49980;SDS011;35871;51.594;7.138;2022-09-09T11:25:40;3.83;;;1.38;;
49980;SDS011;35871;51.594;7.138;2022-09-09T11:42:43;3.80;;;1.30;;
49980;SDS011;35871;51.594;7.138;2022-09-09T11:48:02;2.92;;;1.20;;
49980;SDS011;35871;51.594;7.138;2022-09-09T11:53:46;2.47;;;1.10;;
49980;SDS011;35871;51.594;7.138;2022-09-09T11:59:05;1.95;;;1.17;;
49980;SDS011;35871;51.594;7.138;2022-09-09T12:10:22;4.88;;;1.27;;
49980;SDS011;35871;51.594;7.138;2022-09-09T12:15:27;3.38;;;1.00;;
49980;SDS011;35871;51.594;7.138;2022-09-09T12:36:39;3.70;;;1.17;;
49980;SDS011;35871;51.594;7.138;2022-09-09T12:41:52;2.17;;;0.93;;
49980;SDS011;35871;51.594;7.138;2022-09-09T12:47:11;3.63;;;1.23;;
49980;SDS011;35871;51.594;7.138;2022-09-09T12:52:14;1.52;;;1.02;;
49980;SDS011;35871;51.594;7.138;2022-09-09T12:57:17;3.85;;;1.23;;
49980;SDS011;35871;51.594;7.138;2022-09-09T13:02:20;3.28;;;1.10;;
49980;SDS011;35871;51.594;7.138;2022-09-09T13:07:21;2.85;;;0.80;;
49980;SDS011;35871;51.594;7.138;2022-09-09T13:12:22;2.17;;;0.90;;
49980;SDS011;35871;51.594;7.138;2022-09-09T13:17:27;3.50;;;1.10;;
49980;SDS011;35871;51.594;7.138;2022-09-09T13:33:41;2.33;;;1.00;;
49980;SDS011;35871;51.594;7.138;2022-09-09T13:49:26;4.07;;;1.23;;
49980;SDS011;35871;51.594;7.138;2022-09-09T13:54:37;5.05;;;1.85;;
49980;SDS011;35871;51.594;7.138;2022-09-09T13:59:39;3.67;;;1.58;;
49980;SDS011;35871;51.594;7.138;2022-09-09T14:04:43;3.60;;;1.40;;
49980;SDS011;35871;51.594;7.138;2022-09-09T14:09:55;3.28;;;1.40;;
49980;SDS011;35871;51.594;7.138;2022-09-09T14:14:56;4.63;;;1.70;;
49980;SDS011;35871;51.594;7.138;2022-09-09T14:19:57;3.63;;;1.58;;
49980;SDS011;35871;51.594;7.138;2022-09-09T14:25:01;3.45;;;2.00;;
49980;SDS011;35871;51.594;7.138;2022-09-09T14:30:23;5.60;;;2.22;;
49980;SDS011;35871;51.594;7.138;2022-09-09T14:35:24;4.05;;;1.80;;
49980;SDS011;35871;51.594;7.138;2022-09-09T14:40:25;3.13;;;1.60;;
49980;SDS011;35871;51.594;7.138;2022-09-09T14:45:26;3.45;;;1.17;;
49980;SDS011;35871;51.594;7.138;2022-09-09T15:01:17;2.90;;;1.40;;
49980;SDS011;35871;51.594;7.138;2022-09-09T15:06:34;4.78;;;1.50;;
49980;SDS011;35871;51.594;7.138;2022-09-09T15:11:44;3.25;;;1.60;;
49980;SDS011;35871;51.594;7.138;2022-09-09T15:16:55;3.42;;;1.75;;
49980;SDS011;35871;51.594;7.138;2022-09-09T15:22:26;3.03;;;1.70;;
49980;SDS011;35871;51.594;7.138;2022-09-09T15:44:29;3.25;;;1.20;;
49980;SDS011;35871;51.594;7.138;2022-09-09T15:49:38;4.55;;;1.42;;
49980;SDS011;35871;51.594;7.138;2022-09-09T15:54:39;5.45;;;1.20;;
49980;SDS011;35871;51.594;7.138;2022-09-09T15:59:42;3.38;;;1.10;;
49980;SDS011;35871;51.594;7.138;2022-09-09T16:16:29;2.05;;;1.30;;
49980;SDS011;35871;51.594;7.138;2022-09-09T16:21:52;4.57;;;2.10;;
49980;SDS011;35871;51.594;7.138;2022-09-09T16:26:53;2.85;;;2.13;;
49980;SDS011;35871;51.594;7.138;2022-09-09T16:32:07;3.38;;;2.28;;
49980;SDS011;35871;51.594;7.138;2022-09-09T16:37:09;2.30;;;1.40;;
49980;SDS011;35871;51.594;7.138;2022-09-09T16:42:12;3.10;;;1.63;;
49980;SDS011;35871;51.594;7.138;2022-09-09T16:47:14;2.58;;;1.55;;
49980;SDS011;35871;51.594;7.138;2022-09-09T16:52:15;2.97;;;1.15;;
49980;SDS011;35871;51.594;7.138;2022-09-09T16:57:30;3.72;;;2.72;;
49980;SDS011;35871;51.594;7.138;2022-09-09T17:02:38;4.40;;;1.92;;
49980;SDS011;35871;51.594;7.138;2022-09-09T17:07:41;4.18;;;2.08;;
49980;SDS011;35871;51.594;7.138;2022-09-09T17:12:59;4.20;;;3.13;;
49980;SDS011;35871;51.594;7.138;2022-09-09T17:18:01;4.72;;;3.40;;
49980;SDS011;35871;51.594;7.138;2022-09-09T17:23:02;4.60;;;2.30;;
49980;SDS011;35871;51.594;7.138;2022-09-09T17:28:03;3.65;;;2.40;;
49980;SDS011;35871;51.594;7.138;2022-09-09T17:33:10;3.85;;;1.92;;
49980;SDS011;35871;51.594;7.138;2022-09-09T17:38:12;4.35;;;2.90;;
49980;SDS011;35871;51.594;7.138;2022-09-09T17:43:13;3.90;;;2.67;;
49980;SDS011;35871;51.594;7.138;2022-09-09T17:48:14;3.28;;;2.22;;
49980;SDS011;35871;51.594;7.138;2022-09-09T17:53:15;3.30;;;2.05;;
49980;SDS011;35871;51.594;7.138;2022-09-09T17:58:19;3.00;;;2.00;;
49980;SDS011;35871;51.594;7.138;2022-09-09T18:03:24;2.63;;;1.63;;
49980;SDS011;35871;51.594;7.138;2022-09-09T18:08:28;3.00;;;1.95;;
49980;SDS011;35871;51.594;7.138;2022-09-09T18:13:29;2.38;;;1.88;;
49980;SDS011;35871;51.594;7.138;2022-09-09T18:18:30;2.38;;;1.63;;
49980;SDS011;35871;51.594;7.138;2022-09-09T18:23:35;2.50;;;1.90;;
49980;SDS011;35871;51.594;7.138;2022-09-09T18:28:37;2.33;;;1.60;;
49980;SDS011;35871;51.594;7.138;2022-09-09T18:33:39;2.75;;;1.83;;
49980;SDS011;35871;51.594;7.138;2022-09-09T18:38:40;3.40;;;1.80;;
49980;SDS011;35871;51.594;7.138;2022-09-09T18:43:42;2.42;;;1.88;;
49980;SDS011;35871;51.594;7.138;2022-09-09T18:48:43;3.38;;;2.20;;
49980;SDS011;35871;51.594;7.138;2022-09-09T18:53:58;2.45;;;1.83;;
49980;SDS011;35871;51.594;7.138;2022-09-09T18:59:04;2.70;;;1.80;;
49980;SDS011;35871;51.594;7.138;2022-09-09T19:04:06;2.85;;;1.60;;
49980;SDS011;35871;51.594;7.138;2022-09-09T19:09:15;2.10;;;1.48;;
49980;SDS011;35871;51.594;7.138;2022-09-09T19:14:19;2.92;;;1.77;;
49980;SDS011;35871;51.594;7.138;2022-09-09T19:19:22;2.28;;;1.38;;
49980;SDS011;35871;51.594;7.138;2022-09-09T19:24:25;2.35;;;1.67;;
